sensor_id;sensor_type;location;lat;lon;timestamp;pressure;altitude;pressure_sealevel;temperature;humidity
40948;BME280;49382;-25.924;28.194;2023-04-15T00:00:58;85422.24;;;19.04;21.23
40948;BME280;49382;-25.924;28.194;2023-04-15T00:03:24;85421.88;;;20.08;20.60
40948;BME280;49382;-25.924;28.194;2023-04-15T00:05:50;85428.11;;;19.26;22.40
40948;BME280;49382;-25.924;28.194;2023-04-15T00:08:16;85430.18;;;19.12;22.85
40948;BME280;49382;-25.924;28.194;2023-04-15T00:10:41;85429.52;;;19.21;22.37
40948;BME280;49382;-25.924;28.194;2023-04-15T00:13:07;85430.05;;;19.00;22.02
40948;BME280;49382;-25.924;28.194;2023-04-15T00:15:32;85431.72;;;19.06;21.97
40948;BME280;49382;-25.924;28.194;2023-04-15T00:17:58;85435.89;;;19.38;21.77
40948;BME280;49382;-25.924;28.194;2023-04-15T00:20:24;85437.11;;;19.31;21.82
40948;BME280;49382;-25.924;28.194;2023-04-15T00:22:48;85437.50;;;19.08;22.21
40948;BME280;49382;-25.924;28.194;2023-04-15T00:25:14;85437.03;;;19.35;21.76
40948;BME280;49382;-25.924;28.194;2023-04-15T00:27:39;85434.77;;;19.42;21.74
40948;BME280;49382;-25.924;28.194;2023-04-15T00:30:05;85431.23;;;19.37;21.95
40948;BME280;49382;-25.924;28.194;2023-04-15T00:32:30;85433.62;;;19.34;22.17
40948;BME280;49382;-25.924;28.194;2023-04-15T00:34:56;85430.13;;;17.94;23.00
40948;BME280;49382;-25.924;28.194;2023-04-15T00:37:21;85434.88;;;19.33;22.07
40948;BME280;49382;-25.924;28.194;2023-04-15T00:39:46;85429.69;;;19.50;21.98
40948;BME280;49382;-25.924;28.194;2023-04-15T00:42:13;85428.59;;;19.61;21.89
40948;BME280;49382;-25.924;28.194;2023-04-15T00:44:36;85425.13;;;19.78;21.85
40948;BME280;49382;-25.924;28.194;2023-04-15T00:47:03;85421.70;;;19.17;22.33
40948;BME280;49382;-25.924;28.194;2023-04-15T00:49:27;85423.69;;;18.93;22.77
40948;BME280;49382;-25.924;28.194;2023-04-15T00:51:52;85424.71;;;18.84;22.73
40948;BME280;49382;-25.924;28.194;2023-04-15T00:54:17;85427.88;;;18.72;22.84
40948;BME280;49382;-25.924;28.194;2023-04-15T00:56:43;85426.40;;;18.89;23.55
40948;BME280;49382;-25.924;28.194;2023-04-15T00:59:08;85425.47;;;18.65;22.81
40948;BME280;49382;-25.924;28.194;2023-04-15T01:01:35;85420.28;;;17.66;23.79
40948;BME280;49382;-25.924;28.194;2023-04-15T01:03:59;85423.77;;;18.75;23.20
40948;BME280;49382;-25.924;28.194;2023-04-15T01:06:25;85428.43;;;18.05;23.69
40948;BME280;49382;-25.924;28.194;2023-04-15T01:08:50;85431.07;;;18.31;23.45
40948;BME280;49382;-25.924;28.194;2023-04-15T01:11:15;85430.24;;;18.37;23.79
40948;BME280;49382;-25.924;28.194;2023-04-15T01:13:41;85431.34;;;18.28;24.03
40948;BME280;49382;-25.924;28.194;2023-04-15T01:16:07;85427.53;;;18.28;23.92
40948;BME280;49382;-25.924;28.194;2023-04-15T01:18:32;85431.71;;;18.07;23.85
40948;BME280;49382;-25.924;28.194;2023-04-15T01:20:57;85430.33;;;18.25;24.00
40948;BME280;49382;-25.924;28.194;2023-04-15T01:23:22;85430.21;;;17.80;24.42
40948;BME280;49382;-25.924;28.194;2023-04-15T01:25:48;85430.05;;;18.01;24.09
40948;BME280;49382;-25.924;28.194;2023-04-15T01:28:13;85436.36;;;18.42;23.73
40948;BME280;49382;-25.924;28.194;2023-04-15T01:30:38;85437.38;;;18.39;23.76
40948;BME280;49382;-25.924;28.194;2023-04-15T01:33:03;85435.69;;;18.34;23.89
40948;BME280;49382;-25.924;28.194;2023-04-15T01:35:28;85435.85;;;18.51;23.70
40948;BME280;49382;-25.924;28.194;2023-04-15T01:37:54;85433.09;;;18.11;23.96
40948;BME280;49382;-25.924;28.194;2023-04-15T01:40:19;85436.57;;;18.38;23.41
40948;BME280;49382;-25.924;28.194;2023-04-15T01:42:45;85434.70;;;17.95;23.95
40948;BME280;49382;-25.924;28.194;2023-04-15T01:45:10;85437.04;;;18.59;23.60
40948;BME280;49382;-25.924;28.194;2023-04-15T01:47:35;85433.75;;;18.10;23.82
40948;BME280;49382;-25.924;28.194;2023-04-15T01:50:00;85430.82;;;18.33;23.68
40948;BME280;49382;-25.924;28.194;2023-04-15T01:52:25;85433.62;;;17.50;24.27
40948;BME280;49382;-25.924;28.194;2023-04-15T01:54:50;85431.42;;;18.05;24.16
40948;BME280;49382;-25.924;28.194;2023-04-15T01:57:15;85431.06;;;18.36;23.90
40948;BME280;49382;-25.924;28.194;2023-04-15T01:59:41;85427.48;;;18.37;23.82
40948;BME280;49382;-25.924;28.194;2023-04-15T02:02:06;85430.77;;;17.84;24.18
40948;BME280;49382;-25.924;28.194;2023-04-15T02:04:32;85436.30;;;17.73;24.53
40948;BME280;49382;-25.924;28.194;2023-04-15T02:06:57;85434.49;;;17.77;24.34
40948;BME280;49382;-25.924;28.194;2023-04-15T02:09:22;85428.51;;;17.93;24.27
40948;BME280;49382;-25.924;28.194;2023-04-15T02:11:47;85428.92;;;17.93;24.14
40948;BME280;49382;-25.924;28.194;2023-04-15T02:14:13;85432.87;;;17.83;24.16
40948;BME280;49382;-25.924;28.194;2023-04-15T02:16:38;85441.48;;;18.07;24.03
40948;BME280;49382;-25.924;28.194;2023-04-15T02:19:03;85435.11;;;18.32;23.72
40948;BME280;49382;-25.924;28.194;2023-04-15T02:21:28;85437.77;;;17.49;24.28
40948;BME280;49382;-25.924;28.194;2023-04-15T02:23:54;85446.23;;;17.65;24.15
40948;BME280;49382;-25.924;28.194;2023-04-15T02:26:19;85446.25;;;17.40;24.62
40948;BME280;49382;-25.924;28.194;2023-04-15T02:28:45;85443.24;;;17.81;24.27
40948;BME280;49382;-25.924;28.194;2023-04-15T02:31:09;85444.53;;;17.42;24.35
40948;BME280;49382;-25.924;28.194;2023-04-15T02:33:34;85449.78;;;17.80;24.25
40948;BME280;49382;-25.924;28.194;2023-04-15T02:36:00;85456.66;;;17.65;23.93
40948;BME280;49382;-25.924;28.194;2023-04-15T02:38:25;85463.92;;;17.57;24.06
40948;BME280;49382;-25.924;28.194;2023-04-15T02:40:51;85463.51;;;18.08;23.89
40948;BME280;49382;-25.924;28.194;2023-04-15T02:43:16;85467.65;;;17.33;23.93
40948;BME280;49382;-25.924;28.194;2023-04-15T02:45:41;85474.09;;;17.82;24.30
40948;BME280;49382;-25.924;28.194;2023-04-15T02:48:06;85470.67;;;17.55;24.00
40948;BME280;49382;-25.924;28.194;2023-04-15T02:50:32;85474.83;;;17.66;23.73
40948;BME280;49382;-25.924;28.194;2023-04-15T02:52:57;85477.06;;;17.91;23.46
40948;BME280;49382;-25.924;28.194;2023-04-15T02:55:22;85484.93;;;17.89;23.40
40948;BME280;49382;-25.924;28.194;2023-04-15T02:57:47;85488.36;;;17.74;23.57
40948;BME280;49382;-25.924;28.194;2023-04-15T03:00:13;85491.51;;;17.82;23.41
40948;BME280;49382;-25.924;28.194;2023-04-15T03:02:38;85493.17;;;17.76;23.51
40948;BME280;49382;-25.924;28.194;2023-04-15T03:05:02;85500.16;;;18.28;23.12
40948;BME280;49382;-25.924;28.194;2023-04-15T03:07:27;85501.13;;;18.20;23.39
40948;BME280;49382;-25.924;28.194;2023-04-15T03:09:52;85507.46;;;17.95;23.22
40948;BME280;49382;-25.924;28.194;2023-04-15T03:12:17;85505.22;;;18.19;22.94
40948;BME280;49382;-25.924;28.194;2023-04-15T03:14:42;85500.12;;;17.92;23.02
40948;BME280;49382;-25.924;28.194;2023-04-15T03:17:07;85500.16;;;17.70;23.38
40948;BME280;49382;-25.924;28.194;2023-04-15T03:19:32;85506.52;;;18.05;23.31
40948;BME280;49382;-25.924;28.194;2023-04-15T03:21:57;85512.76;;;17.81;23.60
40948;BME280;49382;-25.924;28.194;2023-04-15T03:24:22;85510.76;;;17.64;23.87
40948;BME280;49382;-25.924;28.194;2023-04-15T03:26:48;85508.10;;;17.77;23.79
40948;BME280;49382;-25.924;28.194;2023-04-15T03:29:13;85508.49;;;17.67;24.12
40948;BME280;49382;-25.924;28.194;2023-04-15T03:31:38;85514.27;;;17.49;24.09
40948;BME280;49382;-25.924;28.194;2023-04-15T03:34:03;85519.73;;;17.56;24.23
40948;BME280;49382;-25.924;28.194;2023-04-15T03:36:29;85519.52;;;16.41;25.08
40948;BME280;49382;-25.924;28.194;2023-04-15T03:38:53;85521.20;;;16.62;25.04
40948;BME280;49382;-25.924;28.194;2023-04-15T03:41:18;85527.55;;;17.64;24.33
40948;BME280;49382;-25.924;28.194;2023-04-15T03:43:43;85532.82;;;17.83;24.09
40948;BME280;49382;-25.924;28.194;2023-04-15T03:46:09;85537.23;;;16.85;25.13
40948;BME280;49382;-25.924;28.194;2023-04-15T03:48:34;85542.79;;;17.32;24.61
40948;BME280;49382;-25.924;28.194;2023-04-15T03:50:59;85543.99;;;17.54;24.71
40948;BME280;49382;-25.924;28.194;2023-04-15T03:53:24;85544.55;;;17.10;24.97
40948;BME280;49382;-25.924;28.194;2023-04-15T03:55:49;85544.49;;;17.39;24.77
40948;BME280;49382;-25.924;28.194;2023-04-15T03:58:14;85550.16;;;17.07;25.20
40948;BME280;49382;-25.924;28.194;2023-04-15T04:00:39;85555.91;;;17.34;25.32
40948;BME280;49382;-25.924;28.194;2023-04-15T04:03:04;85560.53;;;17.69;25.35
40948;BME280;49382;-25.924;28.194;2023-04-15T04:05:29;85561.93;;;17.12;25.89
40948;BME280;49382;-25.924;28.194;2023-04-15T04:07:54;85559.83;;;17.39;26.01
40948;BME280;49382;-25.924;28.194;2023-04-15T04:10:19;85566.01;;;17.35;26.24
40948;BME280;49382;-25.924;28.194;2023-04-15T04:12:44;85570.86;;;16.41;27.51
40948;BME280;49382;-25.924;28.194;2023-04-15T04:15:10;85573.22;;;16.28;27.60
40948;BME280;49382;-25.924;28.194;2023-04-15T04:17:35;85577.67;;;16.42;27.54
40948;BME280;49382;-25.924;28.194;2023-04-15T04:20:00;85581.40;;;16.32;28.05
40948;BME280;49382;-25.924;28.194;2023-04-15T04:22:25;85584.34;;;16.82;27.84
40948;BME280;49382;-25.924;28.194;2023-04-15T04:24:50;85589.68;;;16.59;28.10
40948;BME280;49382;-25.924;28.194;2023-04-15T04:27:15;85591.27;;;16.82;27.79
40948;BME280;49382;-25.924;28.194;2023-04-15T04:29:41;85593.27;;;16.74;27.90
40948;BME280;49382;-25.924;28.194;2023-04-15T04:32:06;85602.07;;;17.01;27.85
40948;BME280;49382;-25.924;28.194;2023-04-15T04:34:31;85605.08;;;16.87;28.39
40948;BME280;49382;-25.924;28.194;2023-04-15T04:36:57;85608.13;;;17.07;28.42
40948;BME280;49382;-25.924;28.194;2023-04-15T04:39:22;85612.80;;;16.63;29.20
40948;BME280;49382;-25.924;28.194;2023-04-15T04:41:48;85618.07;;;16.43;29.88
40948;BME280;49382;-25.924;28.194;2023-04-15T04:44:12;85623.84;;;16.50;29.75
40948;BME280;49382;-25.924;28.194;2023-04-15T04:46:38;85626.12;;;16.19;29.85
40948;BME280;49382;-25.924;28.194;2023-04-15T04:49:03;85627.84;;;16.28;30.46
40948;BME280;49382;-25.924;28.194;2023-04-15T04:51:28;85630.31;;;16.56;30.06
40948;BME280;49382;-25.924;28.194;2023-04-15T04:53:54;85630.74;;;16.44;30.50
40948;BME280;49382;-25.924;28.194;2023-04-15T04:56:19;85627.74;;;16.89;30.03
40948;BME280;49382;-25.924;28.194;2023-04-15T04:58:44;85633.28;;;17.03;30.18
40948;BME280;49382;-25.924;28.194;2023-04-15T05:01:09;85637.56;;;17.23;30.42
40948;BME280;49382;-25.924;28.194;2023-04-15T05:03:35;85638.39;;;16.87;30.80
40948;BME280;49382;-25.924;28.194;2023-04-15T05:06:00;85639.64;;;17.31;30.55
40948;BME280;49382;-25.924;28.194;2023-04-15T05:08:26;85640.76;;;17.05;31.08
40948;BME280;49382;-25.924;28.194;2023-04-15T05:10:51;85651.44;;;17.41;30.76
40948;BME280;49382;-25.924;28.194;2023-04-15T05:13:16;85660.90;;;17.41;30.66
40948;BME280;49382;-25.924;28.194;2023-04-15T05:15:41;85665.45;;;17.22;31.35
40948;BME280;49382;-25.924;28.194;2023-04-15T05:18:07;85668.55;;;17.45;31.41
40948;BME280;49382;-25.924;28.194;2023-04-15T05:20:32;85670.87;;;18.08;31.00
40948;BME280;49382;-25.924;28.194;2023-04-15T05:22:58;85675.02;;;18.16;33.45
40948;BME280;49382;-25.924;28.194;2023-04-15T05:25:23;85681.89;;;17.47;34.27
40948;BME280;49382;-25.924;28.194;2023-04-15T05:27:48;85685.75;;;17.44;34.15
40948;BME280;49382;-25.924;28.194;2023-04-15T05:30:14;85692.53;;;18.01;34.50
40948;BME280;49382;-25.924;28.194;2023-04-15T05:32:38;85694.02;;;17.00;35.95
40948;BME280;49382;-25.924;28.194;2023-04-15T05:35:04;85695.55;;;17.97;34.99
40948;BME280;49382;-25.924;28.194;2023-04-15T05:37:29;85699.38;;;17.76;36.12
40948;BME280;49382;-25.924;28.194;2023-04-15T05:39:54;85700.24;;;17.14;36.99
40948;BME280;49382;-25.924;28.194;2023-04-15T05:42:20;85701.55;;;16.34;38.79
40948;BME280;49382;-25.924;28.194;2023-04-15T05:44:45;85704.74;;;17.15;38.25
40948;BME280;49382;-25.924;28.194;2023-04-15T05:47:10;85708.04;;;17.88;37.74
40948;BME280;49382;-25.924;28.194;2023-04-15T05:49:36;85708.24;;;17.85;38.14
40948;BME280;49382;-25.924;28.194;2023-04-15T05:52:02;85704.25;;;18.05;38.06
40948;BME280;49382;-25.924;28.194;2023-04-15T05:54:27;85707.44;;;17.45;38.15
40948;BME280;49382;-25.924;28.194;2023-04-15T05:56:52;85713.89;;;18.19;37.97
40948;BME280;49382;-25.924;28.194;2023-04-15T05:59:18;85720.90;;;16.96;39.78
40948;BME280;49382;-25.924;28.194;2023-04-15T06:01:43;85715.80;;;18.50;37.80
40948;BME280;49382;-25.924;28.194;2023-04-15T06:04:08;85714.02;;;18.76;37.38
40948;BME280;49382;-25.924;28.194;2023-04-15T06:06:34;85713.50;;;17.98;38.05
40948;BME280;49382;-25.924;28.194;2023-04-15T06:09:00;85720.27;;;18.71;37.39
40948;BME280;49382;-25.924;28.194;2023-04-15T06:11:25;85723.05;;;19.37;36.51
40948;BME280;49382;-25.924;28.194;2023-04-15T06:13:51;85726.30;;;19.21;36.68
40948;BME280;49382;-25.924;28.194;2023-04-15T06:16:16;85729.60;;;18.73;37.38
40948;BME280;49382;-25.924;28.194;2023-04-15T06:18:41;85732.58;;;19.83;35.70
40948;BME280;49382;-25.924;28.194;2023-04-15T06:21:06;85730.22;;;19.46;37.09
40948;BME280;49382;-25.924;28.194;2023-04-15T06:23:34;85740.13;;;20.35;35.62
40948;BME280;49382;-25.924;28.194;2023-04-15T06:25:57;85739.66;;;20.27;36.43
40948;BME280;49382;-25.924;28.194;2023-04-15T06:28:22;85750.29;;;21.31;34.23
40948;BME280;49382;-25.924;28.194;2023-04-15T06:30:48;85753.56;;;20.85;35.29
40948;BME280;49382;-25.924;28.194;2023-04-15T06:33:13;85760.38;;;20.70;35.17
40948;BME280;49382;-25.924;28.194;2023-04-15T06:35:38;85765.65;;;20.75;34.25
40948;BME280;49382;-25.924;28.194;2023-04-15T06:38:04;85768.70;;;20.90;34.18
40948;BME280;49382;-25.924;28.194;2023-04-15T06:40:29;85773.44;;;20.67;34.98
40948;BME280;49382;-25.924;28.194;2023-04-15T06:42:55;85779.59;;;20.56;35.45
40948;BME280;49382;-25.924;28.194;2023-04-15T06:45:20;85784.59;;;20.27;35.42
40948;BME280;49382;-25.924;28.194;2023-04-15T06:47:45;85791.44;;;20.79;35.16
40948;BME280;49382;-25.924;28.194;2023-04-15T06:50:11;85790.72;;;20.13;36.17
40948;BME280;49382;-25.924;28.194;2023-04-15T06:52:36;85791.24;;;19.81;36.96
40948;BME280;49382;-25.924;28.194;2023-04-15T06:55:01;85788.15;;;20.67;35.79
40948;BME280;49382;-25.924;28.194;2023-04-15T06:57:27;85789.77;;;20.49;36.21
40948;BME280;49382;-25.924;28.194;2023-04-15T06:59:52;85796.40;;;20.50;36.68
40948;BME280;49382;-25.924;28.194;2023-04-15T07:02:17;85801.35;;;20.74;35.55
40948;BME280;49382;-25.924;28.194;2023-04-15T07:04:42;85801.93;;;19.92;36.61
40948;BME280;49382;-25.924;28.194;2023-04-15T07:07:08;85802.52;;;20.70;36.21
40948;BME280;49382;-25.924;28.194;2023-04-15T07:09:33;85807.39;;;19.89;37.02
40948;BME280;49382;-25.924;28.194;2023-04-15T07:11:58;85813.24;;;20.64;36.43
40948;BME280;49382;-25.924;28.194;2023-04-15T07:14:23;85814.58;;;20.69;36.64
40948;BME280;49382;-25.924;28.194;2023-04-15T07:16:48;85820.02;;;20.21;37.53
40948;BME280;49382;-25.924;28.194;2023-04-15T07:19:14;85817.72;;;19.90;37.94
40948;BME280;49382;-25.924;28.194;2023-04-15T07:21:39;85819.88;;;20.98;36.48
40948;BME280;49382;-25.924;28.194;2023-04-15T07:24:05;85824.21;;;21.43;36.28
40948;BME280;49382;-25.924;28.194;2023-04-15T07:26:30;85821.31;;;21.22;36.02
40948;BME280;49382;-25.924;28.194;2023-04-15T07:28:55;85821.61;;;21.94;35.27
40948;BME280;49382;-25.924;28.194;2023-04-15T07:31:21;85816.25;;;21.68;35.99
40948;BME280;49382;-25.924;28.194;2023-04-15T07:33:46;85816.44;;;21.83;35.84
40948;BME280;49382;-25.924;28.194;2023-04-15T07:36:12;85815.45;;;21.96;34.83
40948;BME280;49382;-25.924;28.194;2023-04-15T07:38:37;85809.45;;;22.79;34.23
40948;BME280;49382;-25.924;28.194;2023-04-15T07:41:02;85806.94;;;22.57;34.48
40948;BME280;49382;-25.924;28.194;2023-04-15T07:43:28;85801.58;;;22.19;35.97
40948;BME280;49382;-25.924;28.194;2023-04-15T07:45:53;85808.64;;;21.87;35.78
40948;BME280;49382;-25.924;28.194;2023-04-15T07:48:19;85802.47;;;23.25;34.26
40948;BME280;49382;-25.924;28.194;2023-04-15T07:50:45;85798.90;;;23.38;34.51
40948;BME280;49382;-25.924;28.194;2023-04-15T07:53:10;85798.79;;;23.04;34.64
40948;BME280;49382;-25.924;28.194;2023-04-15T07:55:35;85801.36;;;22.72;35.42
40948;BME280;49382;-25.924;28.194;2023-04-15T07:58:01;85805.68;;;21.28;38.06
40948;BME280;49382;-25.924;28.194;2023-04-15T08:00:26;85805.18;;;24.00;34.35
40948;BME280;49382;-25.924;28.194;2023-04-15T08:02:51;85806.16;;;24.06;34.29
40948;BME280;49382;-25.924;28.194;2023-04-15T08:05:17;85806.45;;;23.96;36.21
40948;BME280;49382;-25.924;28.194;2023-04-15T08:07:42;85818.23;;;24.93;33.40
40948;BME280;49382;-25.924;28.194;2023-04-15T08:10:08;85810.39;;;24.37;33.21
40948;BME280;49382;-25.924;28.194;2023-04-15T08:12:33;85816.26;;;24.45;32.96
40948;BME280;49382;-25.924;28.194;2023-04-15T08:14:59;85814.58;;;23.36;34.99
40948;BME280;49382;-25.924;28.194;2023-04-15T08:17:24;85811.72;;;22.92;35.53
40948;BME280;49382;-25.924;28.194;2023-04-15T08:19:50;85822.58;;;24.11;33.98
40948;BME280;49382;-25.924;28.194;2023-04-15T08:22:15;85819.08;;;22.80;35.79
40948;BME280;49382;-25.924;28.194;2023-04-15T08:24:41;85822.98;;;23.24;35.30
40948;BME280;49382;-25.924;28.194;2023-04-15T08:27:06;85820.02;;;25.27;32.95
40948;BME280;49382;-25.924;28.194;2023-04-15T08:29:32;85816.74;;;23.63;34.48
40948;BME280;49382;-25.924;28.194;2023-04-15T08:31:59;85816.26;;;23.23;35.88
40948;BME280;49382;-25.924;28.194;2023-04-15T08:34:24;85814.18;;;25.87;32.29
40948;BME280;49382;-25.924;28.194;2023-04-15T08:36:49;85809.39;;;24.45;33.17
40948;BME280;49382;-25.924;28.194;2023-04-15T08:39:14;85815.84;;;27.68;29.37
40948;BME280;49382;-25.924;28.194;2023-04-15T08:41:45;85809.97;;;30.21;25.86
40948;BME280;49382;-25.924;28.194;2023-04-15T08:44:05;85803.75;;;30.33;25.57
40948;BME280;49382;-25.924;28.194;2023-04-15T08:46:32;85807.19;;;25.30;31.48
40948;BME280;49382;-25.924;28.194;2023-04-15T08:48:57;85800.93;;;24.15;32.41
40948;BME280;49382;-25.924;28.194;2023-04-15T08:51:22;85802.72;;;25.59;31.24
40948;BME280;49382;-25.924;28.194;2023-04-15T08:53:47;85794.64;;;23.97;32.88
40948;BME280;49382;-25.924;28.194;2023-04-15T08:56:14;85790.87;;;24.63;32.78
40948;BME280;49382;-25.924;28.194;2023-04-15T08:58:38;85798.27;;;23.13;33.67
40948;BME280;49382;-25.924;28.194;2023-04-15T09:01:03;85791.89;;;23.04;35.77
40948;BME280;49382;-25.924;28.194;2023-04-15T09:03:29;85785.11;;;23.00;34.34
40948;BME280;49382;-25.924;28.194;2023-04-15T09:05:56;85793.75;;;22.82;36.25
40948;BME280;49382;-25.924;28.194;2023-04-15T09:08:20;85785.93;;;23.28;34.04
40948;BME280;49382;-25.924;28.194;2023-04-15T09:10:46;85779.23;;;23.53;33.56
40948;BME280;49382;-25.924;28.194;2023-04-15T09:13:12;85776.26;;;22.96;34.29
40948;BME280;49382;-25.924;28.194;2023-04-15T09:15:38;85771.49;;;23.95;33.15
40948;BME280;49382;-25.924;28.194;2023-04-15T09:18:04;85770.14;;;23.16;33.65
40948;BME280;49382;-25.924;28.194;2023-04-15T09:20:30;85768.20;;;22.78;34.11
40948;BME280;49382;-25.924;28.194;2023-04-15T09:22:55;85764.74;;;21.60;36.20
40948;BME280;49382;-25.924;28.194;2023-04-15T09:25:25;85765.89;;;22.80;34.55
40948;BME280;49382;-25.924;28.194;2023-04-15T09:27:48;85765.56;;;22.01;35.30
40948;BME280;49382;-25.924;28.194;2023-04-15T09:30:12;85765.19;;;24.21;33.49
40948;BME280;49382;-25.924;28.194;2023-04-15T09:35:10;85765.49;;;23.72;33.57
40948;BME280;49382;-25.924;28.194;2023-04-15T09:37:34;85763.42;;;23.45;33.43
40948;BME280;49382;-25.924;28.194;2023-04-15T09:39:54;85763.03;;;24.35;32.66
40948;BME280;49382;-25.924;28.194;2023-04-15T09:42:20;85751.81;;;24.21;32.20
40948;BME280;49382;-25.924;28.194;2023-04-15T09:44:45;85744.20;;;24.16;32.28
40948;BME280;49382;-25.924;28.194;2023-04-15T09:49:38;85737.49;;;22.86;34.38
40948;BME280;49382;-25.924;28.194;2023-04-15T09:52:02;85738.06;;;24.17;32.68
40948;BME280;49382;-25.924;28.194;2023-04-15T09:54:35;85728.85;;;22.88;33.48
40948;BME280;49382;-25.924;28.194;2023-04-15T09:56:53;85725.28;;;23.46;33.06
40948;BME280;49382;-25.924;28.194;2023-04-15T09:59:18;85720.53;;;22.82;36.12
40948;BME280;49382;-25.924;28.194;2023-04-15T10:01:45;85717.58;;;23.62;34.03
40948;BME280;49382;-25.924;28.194;2023-04-15T10:04:10;85715.39;;;25.04;31.49
40948;BME280;49382;-25.924;28.194;2023-04-15T10:06:36;85708.59;;;23.29;33.35
40948;BME280;49382;-25.924;28.194;2023-04-15T10:09:02;85699.35;;;22.56;34.04
40948;BME280;49382;-25.924;28.194;2023-04-15T10:11:28;85696.65;;;21.96;36.64
40948;BME280;49382;-25.924;28.194;2023-04-15T10:13:52;85698.88;;;24.01;33.48
40948;BME280;49382;-25.924;28.194;2023-04-15T10:16:19;85691.33;;;23.68;33.71
40948;BME280;49382;-25.924;28.194;2023-04-15T10:18:45;85693.36;;;22.80;35.06
40948;BME280;49382;-25.924;28.194;2023-04-15T10:21:09;85686.23;;;23.04;34.05
40948;BME280;49382;-25.924;28.194;2023-04-15T10:23:34;85684.80;;;23.57;34.05
40948;BME280;49382;-25.924;28.194;2023-04-15T10:25:59;85681.23;;;25.14;32.42
40948;BME280;49382;-25.924;28.194;2023-04-15T10:28:25;85673.86;;;23.78;32.74
40948;BME280;49382;-25.924;28.194;2023-04-15T10:30:50;85674.97;;;24.70;32.13
40948;BME280;49382;-25.924;28.194;2023-04-15T10:33:19;85675.13;;;24.84;33.66
40948;BME280;49382;-25.924;28.194;2023-04-15T10:35:42;85669.60;;;24.13;32.71
40948;BME280;49382;-25.924;28.194;2023-04-15T10:40:33;85660.44;;;25.11;33.81
40948;BME280;49382;-25.924;28.194;2023-04-15T10:42:59;85658.23;;;24.94;33.80
40948;BME280;49382;-25.924;28.194;2023-04-15T10:45:26;85653.78;;;24.26;32.32
40948;BME280;49382;-25.924;28.194;2023-04-15T10:47:53;85652.21;;;24.08;32.90
40948;BME280;49382;-25.924;28.194;2023-04-15T10:50:14;85649.84;;;23.04;34.46
40948;BME280;49382;-25.924;28.194;2023-04-15T10:52:40;85648.52;;;23.84;33.72
40948;BME280;49382;-25.924;28.194;2023-04-15T10:55:12;85652.45;;;24.41;32.84
40948;BME280;49382;-25.924;28.194;2023-04-15T10:57:36;85648.36;;;23.42;33.33
40948;BME280;49382;-25.924;28.194;2023-04-15T11:00:03;85644.24;;;23.93;32.23
40948;BME280;49382;-25.924;28.194;2023-04-15T11:04:53;85640.27;;;22.82;34.04
40948;BME280;49382;-25.924;28.194;2023-04-15T11:07:14;85637.75;;;23.19;34.59
40948;BME280;49382;-25.924;28.194;2023-04-15T11:09:39;85631.86;;;23.93;33.49
40948;BME280;49382;-25.924;28.194;2023-04-15T11:12:07;85632.02;;;23.65;34.52
40948;BME280;49382;-25.924;28.194;2023-04-15T11:14:32;85624.48;;;23.86;33.05
40948;BME280;49382;-25.924;28.194;2023-04-15T11:16:56;85621.30;;;22.40;34.84
40948;BME280;49382;-25.924;28.194;2023-04-15T11:19:21;85621.12;;;23.96;34.24
40948;BME280;49382;-25.924;28.194;2023-04-15T11:21:47;85615.49;;;23.36;34.19
40948;BME280;49382;-25.924;28.194;2023-04-15T11:26:38;85607.59;;;22.79;34.20
40948;BME280;49382;-25.924;28.194;2023-04-15T11:29:04;85607.36;;;22.96;34.36
40948;BME280;49382;-25.924;28.194;2023-04-15T11:31:30;85607.87;;;23.80;33.34
40948;BME280;49382;-25.924;28.194;2023-04-15T11:33:57;85608.55;;;22.46;34.42
40948;BME280;49382;-25.924;28.194;2023-04-15T11:36:24;85605.47;;;22.20;34.91
40948;BME280;49382;-25.924;28.194;2023-04-15T11:38:47;85602.53;;;23.20;32.96
40948;BME280;49382;-25.924;28.194;2023-04-15T11:41:13;85606.11;;;24.21;33.02
40948;BME280;49382;-25.924;28.194;2023-04-15T11:43:38;85602.81;;;23.06;32.75
40948;BME280;49382;-25.924;28.194;2023-04-15T11:46:04;85602.67;;;24.44;31.48
40948;BME280;49382;-25.924;28.194;2023-04-15T11:48:32;85604.63;;;24.75;32.38
40948;BME280;49382;-25.924;28.194;2023-04-15T11:50:58;85604.09;;;24.88;32.29
40948;BME280;49382;-25.924;28.194;2023-04-15T11:53:23;85599.21;;;23.71;32.56
40948;BME280;49382;-25.924;28.194;2023-04-15T11:55:49;85601.50;;;24.34;32.17
40948;BME280;49382;-25.924;28.194;2023-04-15T11:58:15;85601.38;;;23.75;32.64
40948;BME280;49382;-25.924;28.194;2023-04-15T12:00:40;85597.89;;;23.42;32.97
40948;BME280;49382;-25.924;28.194;2023-04-15T12:05:31;85601.85;;;24.44;30.96
40948;BME280;49382;-25.924;28.194;2023-04-15T12:07:57;85603.40;;;24.48;31.38
40948;BME280;49382;-25.924;28.194;2023-04-15T12:10:24;85600.02;;;23.35;31.88
40948;BME280;49382;-25.924;28.194;2023-04-15T12:12:50;85600.00;;;23.57;30.98
40948;BME280;49382;-25.924;28.194;2023-04-15T12:15:14;85605.71;;;24.45;30.80
40948;BME280;49382;-25.924;28.194;2023-04-15T12:17:40;85597.05;;;23.34;32.03
40948;BME280;49382;-25.924;28.194;2023-04-15T12:20:06;85598.70;;;24.21;29.99
40948;BME280;49382;-25.924;28.194;2023-04-15T12:22:36;85598.90;;;23.89;29.92
40948;BME280;49382;-25.924;28.194;2023-04-15T12:24:57;85592.51;;;24.44;28.31
40948;BME280;49382;-25.924;28.194;2023-04-15T12:27:26;85593.76;;;23.47;30.47
40948;BME280;49382;-25.924;28.194;2023-04-15T12:29:48;85593.87;;;23.61;30.16
40948;BME280;49382;-25.924;28.194;2023-04-15T12:32:15;85593.04;;;24.81;28.61
40948;BME280;49382;-25.924;28.194;2023-04-15T12:34:42;85592.04;;;24.67;29.33
40948;BME280;49382;-25.924;28.194;2023-04-15T12:37:08;85594.05;;;25.37;28.48
40948;BME280;49382;-25.924;28.194;2023-04-15T12:39:35;85592.23;;;24.14;29.43
40948;BME280;49382;-25.924;28.194;2023-04-15T12:41:58;85587.87;;;24.48;29.94
40948;BME280;49382;-25.924;28.194;2023-04-15T12:44:24;85587.97;;;25.26;28.57